Time;durP1;ratioP1;P1;durP2;ratioP2;P2;SDS_P1;SDS_P2;PMS_P1;PMS_P2;Temp;Humidity;BMP_temperature;BMP_pressure;BME280_temperature;BME280_humidity;BME280_pressure;Samples;Min_cycle;Max_cycle;Signal;HPM_P1;HPM_P2
2022/01/17 13:45:05;;;;;;;;;;;9.40;99.90;;;;;;5124381;27;19916;-65
2022/01/17 13:47:30;;;;;;;;;;;8.60;99.90;;;;;;5126550;27;20280;-65
2022/01/17 13:49:56;;;;;;;;;;;8.60;99.90;;;;;;5139892;27;19928;-64
2022/01/17 13:52:24;;;;;;;;;;;8.70;99.90;;;;;;5116677;28;20038;-64
2022/01/17 13:54:51;;;;;;;;;;;8.60;99.90;;;;;;5120708;28;19927;-64
2022/01/17 13:57:19;;;;;;;;;;;8.60;99.90;;;;;;5121788;28;19924;-64
2022/01/17 14:00:01;;;;;;;;;;;8.60;99.90;;;;;;5108640;28;19924;-64
2022/01/17 14:02:35;;;;;;;;;;;8.60;99.90;;;;;;5120517;28;19934;-63
2022/01/17 14:05:01;;;;;;;;;;;8.60;99.90;;;;;;5128279;27;19970;-65
2022/01/17 14:07:27;;;;;;;;;;;8.60;99.90;;;;;;5127147;28;19940;-64
2022/01/17 14:09:54;;;;;;;;;;;8.60;99.90;;;;;;5125136;27;20461;-67
2022/01/17 14:12:22;;;;;;;;;;;8.60;99.90;;;;;;5128066;27;19927;-65
2022/01/17 14:14:50;;;;;;;;;;;8.60;99.90;;;;;;5101807;28;19936;-66
2022/01/17 14:17:23;;;;;;;;;;;8.60;99.90;;;;;;5123051;28;19932;-65
2022/01/17 14:19:48;;;;;;;;;;;8.60;99.90;;;;;;5113908;28;19927;-65
2022/01/17 14:22:14;;;;;;;;;;;8.60;99.90;;;;;;5108964;28;19924;-65
2022/01/17 14:24:41;;;;;;;;;;;8.60;99.90;;;;;;5128577;28;19934;-67
2022/01/17 14:27:09;;;;;;;;;;;8.60;99.90;;;;;;5126085;28;19927;-65
2022/01/17 14:29:41;;;;;;;;;;;8.60;99.90;;;;;;5127581;28;19919;-65
2022/01/17 14:32:08;;;;;;;;;;;8.50;99.90;;;;;;5108243;28;20292;-65
2022/01/17 14:34:34;;;;;;;;;;;8.50;99.90;;;;;;5108877;28;19963;-65
2022/01/17 14:37:03;;;;;;;;;;;8.60;99.90;;;;;;5111453;28;19971;-65
2022/01/17 14:39:29;;;;;;;;;;;8.60;99.90;;;;;;5109687;28;20308;-64
2022/01/17 14:41:56;;;;;;;;;;;8.60;99.90;;;;;;5127380;28;19938;-64
2022/01/17 14:44:22;;;;;;;;;;;8.60;99.90;;;;;;5125852;28;19971;-65
2022/01/17 14:46:49;;;;;;;;;;;8.60;99.90;;;;;;5126110;28;19970;-66
2022/01/17 14:49:18;;;;;;;;;;;8.50;99.90;;;;;;5107078;28;20479;-66
2022/01/17 14:51:44;;;;;;;;;;;8.40;99.90;;;;;;5093206;28;19924;-65
2022/01/17 14:54:15;;;;;;;;;;;8.40;99.90;;;;;;5126440;28;19924;-66
2022/01/17 14:59:48;;;;;;;;;;;8.20;99.90;;;;;;5049022;28;19932;-65
2022/01/17 15:02:38;;;;;;;;;;;8.20;99.90;;;;;;5094488;28;19928;-65
2022/01/17 15:05:03;;;;;;;;;;;8.20;99.90;;;;;;5093642;28;19928;-64
2022/01/17 15:07:28;;;;;;;;;;;8.10;99.90;;;;;;5098640;28;19934;-65
2022/01/17 15:09:54;;;;;;;;;;;8.10;99.90;;;;;;5095686;28;19969;-65
2022/01/17 15:12:20;;;;;;;;;;;8.10;99.90;;;;;;5110545;28;19934;-67
2022/01/17 15:14:47;;;;;;;;;;;8.10;99.90;;;;;;5108722;27;19931;-66
2022/01/17 15:17:15;;;;;;;;;;;8.10;99.90;;;;;;5112089;27;19931;-66
2022/01/17 15:19:41;;;;;;;;;;;8.10;99.90;;;;;;5096695;28;19984;-64
2022/01/17 15:22:06;;;;;;;;;;;8.00;99.90;;;;;;5092468;28;19954;-66
2022/01/17 15:24:32;;;;;;;;;;;7.90;99.90;;;;;;5092758;28;19924;-65
2022/01/17 15:26:58;;;;;;;;;;;7.90;99.90;;;;;;5093865;28;19968;-66
2022/01/17 15:29:25;;;;;;;;;;;7.90;99.90;;;;;;5108320;28;19928;-66
2022/01/17 15:31:52;;;;;;;;;;;7.90;99.90;;;;;;5102595;28;19981;-65
2022/01/17 15:34:19;;;;;;;;;;;7.90;99.90;;;;;;5092760;28;20432;-65
2022/01/17 15:36:44;;;;;;;;;;;7.90;99.90;;;;;;5094144;28;20411;-64
2022/01/17 15:39:10;;;;;;;;;;;7.80;99.90;;;;;;5090581;28;19924;-65
2022/01/17 15:41:36;;;;;;;;;;;7.80;99.90;;;;;;5094980;28;19931;-65
2022/01/17 15:44:02;;;;;;;;;;;7.80;99.90;;;;;;5100820;27;19924;-65
2022/01/17 15:46:29;;;;;;;;;;;7.80;99.90;;;;;;5091293;28;20379;-66
2022/01/17 15:48:55;;;;;;;;;;;7.70;99.90;;;;;;5103305;27;20490;-65
2022/01/17 15:51:21;;;;;;;;;;;7.70;99.90;;;;;;5091235;28;20022;-67
2022/01/17 15:53:46;;;;;;;;;;;7.80;99.90;;;;;;5091781;28;19932;-65
2022/01/17 15:56:12;;;;;;;;;;;7.70;99.90;;;;;;5074232;28;19928;-65
2022/01/17 15:58:37;;;;;;;;;;;7.70;99.90;;;;;;5100184;28;19927;-65
2022/01/17 16:01:03;;;;;;;;;;;7.70;99.90;;;;;;5093997;28;19947;-66
2022/01/17 16:03:29;;;;;;;;;;;7.60;99.90;;;;;;5093638;27;20284;-65
2022/01/17 16:05:55;;;;;;;;;;;7.60;99.90;;;;;;5092911;28;19970;-64
2022/01/17 16:08:20;;;;;;;;;;;7.50;99.90;;;;;;5098215;28;19935;-66
2022/01/17 16:10:48;;;;;;;;;;;7.50;99.90;;;;;;5091920;28;19939;-66
2022/01/17 16:13:20;;;;;;;;;;;7.40;99.90;;;;;;5107563;28;19931;-66
2022/01/17 16:15:47;;;;;;;;;;;7.30;99.90;;;;;;5092404;28;19932;-66
2022/01/17 16:18:16;;;;;;;;;;;7.30;99.90;;;;;;5108631;28;19934;-66
2022/01/17 16:20:48;;;;;;;;;;;7.30;99.90;;;;;;5095399;28;19932;-66
2022/01/17 16:23:14;;;;;;;;;;;7.20;99.90;;;;;;5112312;27;19924;-66
2022/01/17 16:25:40;;;;;;;;;;;7.20;99.90;;;;;;5096650;28;19924;-65
2022/01/17 16:28:06;;;;;;;;;;;7.20;99.90;;;;;;5107605;28;19936;-65
2022/01/17 16:30:32;;;;;;;;;;;7.10;99.90;;;;;;5073363;28;19975;-66
2022/01/17 16:32:58;;;;;;;;;;;7.10;99.90;;;;;;5074103;28;19924;-66
2022/01/17 16:35:23;;;;;;;;;;;7.10;99.90;;;;;;5103320;27;19924;-66
2022/01/17 16:37:49;;;;;;;;;;;7.10;99.90;;;;;;5098647;27;19938;-67
2022/01/17 16:40:15;;;;;;;;;;;7.10;99.90;;;;;;5099989;28;19935;-66
2022/01/17 16:42:40;;;;;;;;;;;7.00;99.90;;;;;;5081583;28;19928;-65
2022/01/17 16:45:06;;;;;;;;;;;7.00;99.90;;;;;;5107681;28;19985;-64
2022/01/17 16:47:32;;;;;;;;;;;7.00;99.90;;;;;;5082951;28;20027;-64
2022/01/17 16:49:58;;;;;;;;;;;7.00;99.90;;;;;;5098437;28;20007;-65
2022/01/17 16:52:24;;;;;;;;;;;6.90;99.90;;;;;;5097891;28;19928;-67
2022/01/17 16:54:50;;;;;;;;;;;6.90;99.90;;;;;;5105912;28;20277;-67
2022/01/17 16:57:17;;;;;;;;;;;6.90;99.90;;;;;;5077874;28;19928;-67
2022/01/17 16:59:43;;;;;;;;;;;7.00;99.90;;;;;;5102243;28;19948;-65
2022/01/17 17:02:09;;;;;;;;;;;7.10;99.90;;;;;;5090436;28;19924;-67
2022/01/17 17:04:35;;;;;;;;;;;7.10;99.90;;;;;;5112928;27;20408;-65
2022/01/17 17:07:01;;;;;;;;;;;7.10;99.90;;;;;;5101076;28;19927;-67
2022/01/17 17:09:27;;;;;;;;;;;7.10;99.90;;;;;;5072908;28;19954;-67
2022/01/17 17:11:53;;;;;;;;;;;7.10;99.90;;;;;;5105438;28;19951;-66
2022/01/17 17:14:19;;;;;;;;;;;7.00;99.90;;;;;;5112624;27;19935;-66
2022/01/17 17:16:44;;;;;;;;;;;7.00;99.90;;;;;;5098855;27;19932;-66
2022/01/17 17:19:10;;;;;;;;;;;7.00;99.90;;;;;;5097468;28;20284;-66
2022/01/17 17:21:36;;;;;;;;;;;6.90;99.90;;;;;;5098432;28;19932;-69
2022/01/17 17:24:08;;;;;;;;;;;6.80;99.90;;;;;;5078505;28;20285;-67
2022/01/17 17:26:34;;;;;;;;;;;6.70;99.90;;;;;;5105789;28;20289;-68
2022/01/17 17:28:59;;;;;;;;;;;6.70;99.90;;;;;;5090245;28;19928;-67
2022/01/17 17:31:25;;;;;;;;;;;6.70;99.90;;;;;;5079177;28;19958;-67
2022/01/17 17:33:51;;;;;;;;;;;6.70;99.90;;;;;;5091306;28;20005;-68
2022/01/17 17:36:18;;;;;;;;;;;6.70;99.90;;;;;;5107687;28;20334;-69
2022/01/17 17:38:44;;;;;;;;;;;6.60;99.90;;;;;;5100630;28;19950;-68
2022/01/17 17:41:09;;;;;;;;;;;6.70;99.90;;;;;;5113515;28;19923;-68
2022/01/17 17:43:37;;;;;;;;;;;6.60;99.90;;;;;;5108829;28;20009;-68
2022/01/17 17:46:02;;;;;;;;;;;6.60;99.90;;;;;;5105965;28;19924;-72
2022/01/17 17:48:28;;;;;;;;;;;6.70;99.90;;;;;;5076468;28;19930;-68
2022/01/17 17:50:59;;;;;;;;;;;6.70;99.90;;;;;;5110819;28;20343;-69
2022/01/17 17:53:26;;;;;;;;;;;6.80;99.90;;;;;;5076802;28;20011;-68
2022/01/17 17:55:51;;;;;;;;;;;6.90;99.90;;;;;;5088248;28;19928;-70
2022/01/17 17:58:17;;;;;;;;;;;7.00;99.90;;;;;;5110273;28;19973;-68
2022/01/17 18:00:44;;;;;;;;;;;7.00;99.90;;;;;;5109186;28;19924;-70
2022/01/17 18:03:10;;;;;;;;;;;7.00;99.90;;;;;;5110288;28;19927;-69
2022/01/17 18:05:36;;;;;;;;;;;7.00;99.90;;;;;;5103693;28;19928;-69
2022/01/17 18:08:01;;;;;;;;;;;7.00;99.90;;;;;;5107174;28;19930;-68
2022/01/17 18:10:27;;;;;;;;;;;7.00;99.90;;;;;;5081297;28;20014;-70
2022/01/17 18:12:53;;;;;;;;;;;7.00;99.90;;;;;;5089344;28;19932;-70
2022/01/17 18:15:19;;;;;;;;;;;6.90;99.90;;;;;;5087131;28;20013;-69
2022/01/17 18:17:46;;;;;;;;;;;6.90;99.90;;;;;;5094328;28;19928;-69
2022/01/17 18:20:12;;;;;;;;;;;6.80;99.90;;;;;;5087486;28;19935;-70
2022/01/17 18:22:38;;;;;;;;;;;6.80;99.90;;;;;;5103534;28;19928;-70
2022/01/17 18:25:04;;;;;;;;;;;6.90;99.90;;;;;;5105051;28;20029;-69
2022/01/17 18:27:29;;;;;;;;;;;6.90;99.90;;;;;;5099341;28;19980;-69
2022/01/17 18:29:55;;;;;;;;;;;6.90;99.90;;;;;;5095839;28;19927;-70
2022/01/17 18:32:20;;;;;;;;;;;7.00;99.90;;;;;;5111576;28;19942;-68
2022/01/17 18:34:46;;;;;;;;;;;6.90;99.90;;;;;;5111513;28;20344;-69
2022/01/17 18:37:11;;;;;;;;;;;7.00;99.90;;;;;;5073661;28;19931;-70
2022/01/17 18:39:37;;;;;;;;;;;7.00;99.90;;;;;;5107736;28;19928;-71
2022/01/17 18:42:04;;;;;;;;;;;7.00;99.90;;;;;;5094798;28;19930;-70
2022/01/17 18:44:30;;;;;;;;;;;7.00;99.90;;;;;;5093444;28;19927;-70
2022/01/17 18:46:56;;;;;;;;;;;7.00;99.90;;;;;;5118743;27;19954;-69
2022/01/17 18:49:23;;;;;;;;;;;7.00;99.90;;;;;;5110349;28;19927;-68
2022/01/17 18:51:51;;;;;;;;;;;7.00;99.90;;;;;;5097897;28;19931;-69
2022/01/17 18:54:17;;;;;;;;;;;7.10;99.90;;;;;;5091556;28;19932;-69
2022/01/17 18:56:43;;;;;;;;;;;7.10;99.90;;;;;;5072964;28;20397;-69
2022/01/17 18:59:10;;;;;;;;;;;7.10;99.90;;;;;;5100684;28;20018;-69
2022/01/17 19:01:38;;;;;;;;;;;7.10;99.90;;;;;;5074751;28;19971;-69
2022/01/17 19:04:04;;;;;;;;;;;7.10;99.90;;;;;;5104534;28;19977;-68
2022/01/17 19:06:29;;;;;;;;;;;7.10;99.90;;;;;;5102309;28;19932;-69
2022/01/17 19:08:56;;;;;;;;;;;7.10;99.90;;;;;;5091725;28;19934;-70
2022/01/17 19:11:22;;;;;;;;;;;7.20;99.90;;;;;;5109116;28;19934;-70
2022/01/17 19:13:47;;;;;;;;;;;7.20;99.90;;;;;;5092045;28;19927;-69
2022/01/17 19:16:13;;;;;;;;;;;7.20;99.90;;;;;;5109900;28;19927;-69
2022/01/17 19:19:22;;;;;;;;;;;7.10;99.90;;;;;;5089963;28;20373;-69
2022/01/17 19:21:32;;;;;;;;;;;7.10;99.90;;;;;;5108255;27;19928;-71
2022/01/17 19:23:58;;;;;;;;;;;7.10;99.90;;;;;;5105724;28;19928;-69
2022/01/17 19:26:23;;;;;;;;;;;7.10;99.90;;;;;;5109377;28;19935;-69
2022/01/17 19:28:49;;;;;;;;;;;7.10;99.90;;;;;;5108757;28;19924;-68
2022/01/17 19:31:15;;;;;;;;;;;7.10;99.90;;;;;;5111080;28;20041;-69
2022/01/17 19:33:40;;;;;;;;;;;7.10;99.90;;;;;;5096564;28;20313;-69
2022/01/17 19:36:06;;;;;;;;;;;7.10;99.90;;;;;;5103259;28;19932;-69
2022/01/17 19:38:33;;;;;;;;;;;7.10;99.90;;;;;;5124512;27;20464;-70
2022/01/17 19:40:59;;;;;;;;;;;7.10;99.90;;;;;;5120612;27;19931;-69
2022/01/17 19:43:25;;;;;;;;;;;7.20;99.90;;;;;;5109976;28;20358;-69
2022/01/17 19:45:52;;;;;;;;;;;7.10;99.90;;;;;;5108357;28;19935;-70
2022/01/17 19:48:18;;;;;;;;;;;7.20;99.90;;;;;;5111183;28;19930;-69
2022/01/17 19:50:44;;;;;;;;;;;7.10;99.90;;;;;;5109716;28;19942;-69
2022/01/17 19:53:10;;;;;;;;;;;7.10;99.90;;;;;;5105921;28;19935;-70
2022/01/17 19:55:36;;;;;;;;;;;7.20;99.90;;;;;;5110797;28;20213;-70
2022/01/17 19:58:01;;;;;;;;;;;7.10;99.90;;;;;;5092102;28;19928;-70
2022/01/17 20:00:27;;;;;;;;;;;7.20;99.90;;;;;;5098823;28;19931;-69
2022/01/17 20:02:54;;;;;;;;;;;7.10;99.90;;;;;;5109172;28;20076;-69
2022/01/17 20:05:22;;;;;;;;;;;7.20;99.90;;;;;;5110932;28;19934;-69
2022/01/17 20:07:49;;;;;;;;;;;7.10;99.90;;;;;;5109630;28;19927;-66
2022/01/17 20:10:14;;;;;;;;;;;7.10;99.90;;;;;;5108691;28;19978;-68
2022/01/17 20:12:40;;;;;;;;;;;7.00;99.90;;;;;;5109390;28;20032;-68
2022/01/17 20:15:06;;;;;;;;;;;7.00;99.90;;;;;;5109492;28;19932;-66
2022/01/17 20:17:31;;;;;;;;;;;7.00;99.90;;;;;;5109474;28;19978;-68
2022/01/17 20:19:57;;;;;;;;;;;6.90;99.90;;;;;;5109318;28;19930;-72
2022/01/17 20:22:23;;;;;;;;;;;6.90;99.90;;;;;;5093267;28;19927;-74
2022/01/17 20:24:48;;;;;;;;;;;6.90;99.90;;;;;;5080880;28;19934;-66
2022/01/17 20:27:14;;;;;;;;;;;6.80;99.90;;;;;;5090098;28;20004;-65
2022/01/17 20:29:40;;;;;;;;;;;6.80;99.90;;;;;;5100827;28;19977;-66
2022/01/17 20:32:05;;;;;;;;;;;6.80;99.90;;;;;;5106342;28;19979;-67
2022/01/17 20:34:31;;;;;;;;;;;6.80;99.90;;;;;;5107568;28;19963;-67
2022/01/17 20:36:58;;;;;;;;;;;6.80;99.90;;;;;;5094597;28;19928;-66
2022/01/17 20:39:23;;;;;;;;;;;6.90;99.90;;;;;;5110382;28;20345;-67
2022/01/17 20:41:49;;;;;;;;;;;6.80;99.90;;;;;;5109569;28;20447;-66
2022/01/17 20:44:14;;;;;;;;;;;6.90;99.90;;;;;;5109113;28;20040;-66
2022/01/17 20:46:40;;;;;;;;;;;6.90;99.90;;;;;;5104796;28;19934;-66
2022/01/17 20:49:06;;;;;;;;;;;6.90;99.90;;;;;;5100754;28;19931;-67
2022/01/17 20:51:32;;;;;;;;;;;6.90;99.90;;;;;;5097028;28;19928;-65
2022/01/17 20:53:58;;;;;;;;;;;6.90;99.90;;;;;;5106868;28;20624;-65
2022/01/17 20:56:24;;;;;;;;;;;7.00;99.90;;;;;;5101081;28;19935;-66
2022/01/17 20:58:49;;;;;;;;;;;7.00;99.90;;;;;;5086374;28;19924;-67
2022/01/17 21:01:15;;;;;;;;;;;7.00;99.90;;;;;;5099568;28;19935;-66
2022/01/17 21:03:40;;;;;;;;;;;7.00;99.90;;;;;;5107787;28;19928;-66
2022/01/17 21:06:06;;;;;;;;;;;7.10;99.90;;;;;;5090383;28;20490;-66
2022/01/17 21:08:32;;;;;;;;;;;7.10;99.90;;;;;;5107765;28;19927;-67
2022/01/17 21:10:57;;;;;;;;;;;7.10;99.90;;;;;;5107475;28;19985;-68
2022/01/17 21:13:23;;;;;;;;;;;7.10;99.90;;;;;;5090822;28;19997;-67
2022/01/17 21:15:49;;;;;;;;;;;7.10;99.90;;;;;;5091516;28;19923;-66
2022/01/17 21:18:14;;;;;;;;;;;7.10;99.90;;;;;;5107239;28;19950;-66
2022/01/17 21:20:40;;;;;;;;;;;7.10;99.90;;;;;;5108025;28;20018;-67
2022/01/17 21:23:07;;;;;;;;;;;7.10;99.90;;;;;;5089817;28;19931;-67
2022/01/17 21:25:34;;;;;;;;;;;7.20;99.90;;;;;;5105243;28;19951;-65
2022/01/17 21:27:59;;;;;;;;;;;7.20;99.90;;;;;;5109173;28;19928;-67
2022/01/17 21:30:26;;;;;;;;;;;7.20;99.90;;;;;;5107083;28;19930;-66
2022/01/17 21:32:52;;;;;;;;;;;7.20;99.90;;;;;;5106860;28;20036;-66
2022/01/17 21:35:18;;;;;;;;;;;7.20;99.90;;;;;;5097240;28;19927;-66
2022/01/17 21:37:44;;;;;;;;;;;7.20;99.90;;;;;;5095878;28;19928;-66
2022/01/17 21:40:10;;;;;;;;;;;7.20;99.90;;;;;;5098962;28;19928;-67
2022/01/17 21:42:36;;;;;;;;;;;7.30;99.90;;;;;;5095123;28;20322;-67
2022/01/17 21:45:03;;;;;;;;;;;7.30;99.90;;;;;;5092720;28;19927;-69
2022/01/17 21:47:29;;;;;;;;;;;7.30;99.90;;;;;;5109704;28;19932;-67
2022/01/17 21:49:54;;;;;;;;;;;7.30;99.90;;;;;;5110308;28;20278;-67
2022/01/17 21:52:20;;;;;;;;;;;7.30;99.90;;;;;;5107420;28;19928;-66
2022/01/17 21:54:46;;;;;;;;;;;7.30;99.90;;;;;;5111157;27;19954;-66
2022/01/17 21:57:13;;;;;;;;;;;7.30;99.90;;;;;;5106621;28;19932;-66
2022/01/17 21:59:42;;;;;;;;;;;7.30;99.90;;;;;;5109461;28;19982;-66
2022/01/17 22:02:15;;;;;;;;;;;7.30;99.90;;;;;;5108394;28;19927;-67
2022/01/17 22:04:42;;;;;;;;;;;7.30;99.90;;;;;;5109290;28;19928;-67
2022/01/17 22:07:08;;;;;;;;;;;7.30;99.90;;;;;;5109201;28;19923;-67
2022/01/17 22:09:33;;;;;;;;;;;7.30;99.90;;;;;;5109365;28;20266;-67
2022/01/17 22:11:59;;;;;;;;;;;7.30;99.90;;;;;;5104334;28;20432;-67
2022/01/17 22:14:24;;;;;;;;;;;7.30;99.90;;;;;;5112729;28;19927;-67
2022/01/17 22:16:50;;;;;;;;;;;7.30;99.90;;;;;;5096884;28;20386;-67
2022/01/17 22:19:15;;;;;;;;;;;7.30;99.90;;;;;;5082392;28;19928;-65
2022/01/17 22:21:41;;;;;;;;;;;7.30;99.90;;;;;;5093735;28;19920;-65
2022/01/17 22:24:07;;;;;;;;;;;7.30;99.90;;;;;;5112076;28;19927;-67
2022/01/17 22:26:32;;;;;;;;;;;7.30;99.90;;;;;;5087084;28;19928;-67
2022/01/17 22:28:58;;;;;;;;;;;7.30;99.90;;;;;;5108456;28;19927;-67
2022/01/17 22:31:24;;;;;;;;;;;7.30;99.90;;;;;;5098061;28;19997;-66
2022/01/17 22:33:49;;;;;;;;;;;7.30;99.90;;;;;;5112641;27;20040;-67
2022/01/17 22:36:15;;;;;;;;;;;7.30;99.90;;;;;;5102725;28;19924;-67
2022/01/17 22:38:41;;;;;;;;;;;7.30;99.90;;;;;;5114013;28;20008;-67
2022/01/17 22:41:06;;;;;;;;;;;7.30;99.90;;;;;;5114523;28;19928;-67
2022/01/17 22:43:32;;;;;;;;;;;7.30;99.90;;;;;;5114071;28;19981;-67
2022/01/17 22:46:02;;;;;;;;;;;7.30;99.90;;;;;;5111831;27;19927;-67
2022/01/17 22:48:28;;;;;;;;;;;7.20;99.90;;;;;;5112873;28;19923;-67
2022/01/17 22:50:53;;;;;;;;;;;7.20;99.90;;;;;;5113615;28;19928;-67
2022/01/17 22:53:19;;;;;;;;;;;7.20;99.90;;;;;;5113828;28;19954;-66
2022/01/17 22:55:44;;;;;;;;;;;7.20;99.90;;;;;;5093226;28;20035;-67
2022/01/17 22:58:10;;;;;;;;;;;7.20;99.90;;;;;;5094112;28;19932;-67
2022/01/17 23:00:36;;;;;;;;;;;7.20;99.90;;;;;;5112269;28;19957;-67
2022/01/17 23:03:02;;;;;;;;;;;7.10;99.90;;;;;;5130401;27;19930;-66
2022/01/17 23:05:27;;;;;;;;;;;7.10;99.90;;;;;;5095779;28;20293;-67
2022/01/17 23:07:53;;;;;;;;;;;7.10;99.90;;;;;;5108616;28;19923;-67
2022/01/17 23:10:19;;;;;;;;;;;7.10;99.90;;;;;;5111957;28;19932;-67
2022/01/17 23:12:44;;;;;;;;;;;7.10;99.90;;;;;;5114233;28;20368;-67
2022/01/17 23:15:13;;;;;;;;;;;7.10;99.90;;;;;;5096004;28;20375;-67
2022/01/17 23:17:40;;;;;;;;;;;7.00;99.90;;;;;;5101814;28;19967;-68
2022/01/17 23:20:10;;;;;;;;;;;6.90;99.90;;;;;;5110357;28;20018;-67
2022/01/17 23:22:35;;;;;;;;;;;6.80;99.90;;;;;;5112535;28;19935;-67
2022/01/17 23:25:01;;;;;;;;;;;6.80;99.90;;;;;;5095187;28;20376;-68
2022/01/17 23:27:27;;;;;;;;;;;6.70;99.90;;;;;;5109750;28;19924;-67
2022/01/17 23:30:00;;;;;;;;;;;6.70;99.90;;;;;;5103451;28;20356;-68
2022/01/17 23:35:11;;;;;;;;;;;6.60;99.90;;;;;;5112421;28;19924;-67
2022/01/17 23:37:37;;;;;;;;;;;6.50;99.90;;;;;;5111509;28;20030;-67
2022/01/17 23:40:02;;;;;;;;;;;6.40;99.90;;;;;;5098374;28;19927;-66
2022/01/17 23:42:28;;;;;;;;;;;6.40;99.90;;;;;;5113397;28;19923;-68
2022/01/17 23:44:53;;;;;;;;;;;6.40;99.90;;;;;;5112415;28;19924;-66
2022/01/17 23:47:19;;;;;;;;;;;6.30;99.90;;;;;;5111092;28;19928;-68
2022/01/17 23:49:45;;;;;;;;;;;6.30;99.90;;;;;;5099094;28;19924;-67
2022/01/17 23:52:11;;;;;;;;;;;6.20;99.90;;;;;;5112550;28;19978;-66
2022/01/17 23:54:38;;;;;;;;;;;6.20;99.90;;;;;;5113046;28;19932;-67
2022/01/17 23:57:13;;;;;;;;;;;6.20;99.90;;;;;;5112039;28;19924;-66
2022/01/17 23:59:39;;;;;;;;;;;6.20;99.90;;;;;;5108420;28;19927;-67
